createdAt,value
2023-03-28T00:44:40.274Z,0.22
2023-03-28T00:49:12.240Z,0.20
2023-03-28T00:53:41.563Z,0.17
2023-03-28T01:19:30.647Z,0.36
2023-03-28T01:23:21.665Z,0.38
2023-03-28T01:27:56.937Z,0.38
2023-03-28T01:32:40.832Z,0.40
2023-03-28T01:37:14.262Z,0.37
2023-03-28T01:41:45.811Z,0.39
2023-03-28T02:16:37.898Z,0.20
2023-03-28T02:20:39.687Z,0.17
2023-03-28T02:25:18.151Z,0.13
2023-03-28T02:29:42.524Z,0.15
2023-03-28T02:34:17.978Z,0.17
2023-03-28T02:38:26.373Z,0.18
2023-03-28T02:42:53.992Z,0.17
2023-03-28T03:09:15.289Z,0.36
2023-03-28T03:13:33.696Z,0.38
2023-03-28T03:44:03.172Z,0.67
2023-03-28T03:48:31.957Z,0.59
2023-03-28T03:52:52.742Z,0.51
2023-03-28T03:56:47.821Z,0.45
2023-03-28T04:22:49.417Z,-0.03
2023-03-28T04:26:51.214Z,-0.10
2023-03-28T04:30:32.595Z,-0.14
2023-03-28T04:34:59.832Z,-0.19
2023-03-28T04:38:47.625Z,-0.26
2023-03-28T04:43:03.857Z,-0.29
2023-03-28T04:46:57.638Z,-0.27
2023-03-28T04:50:35.589Z,-0.29
2023-03-28T04:54:34.413Z,-0.32
2023-03-28T04:58:38.494Z,-0.36
2023-03-28T05:01:51.604Z,-0.36
2023-03-28T05:06:09.790Z,-0.37
2023-03-28T05:10:14.448Z,-0.35
2023-03-28T05:48:17.553Z,-0.17
2023-03-28T06:26:06.940Z,0.77
2023-03-28T06:30:29.300Z,0.69
2023-03-28T06:34:36.673Z,0.87
2023-03-28T06:38:47.981Z,1.04
2023-03-28T06:43:17.436Z,1.27
2023-03-28T06:47:35.019Z,1.53
2023-03-28T07:28:11.335Z,2.12
2023-03-28T07:32:38.665Z,2.57
2023-03-28T07:37:12.363Z,3.09
2023-03-28T07:41:42.606Z,4.07
2023-03-28T07:46:03.655Z,4.36
2023-03-28T08:40:25.697Z,3.57
2023-03-28T08:44:47.300Z,3.72
2023-03-28T09:07:24.690Z,3.87
2023-03-28T09:11:43.259Z,3.67
2023-03-28T09:16:09.404Z,3.77
2023-03-28T09:20:51.760Z,3.59
2023-03-28T09:25:27.916Z,3.59
2023-03-28T09:30:00.221Z,3.64
2023-03-28T10:00:50.156Z,4.00
2023-03-28T10:05:05.597Z,4.18
2023-03-28T10:09:06.795Z,4.29
2023-03-28T10:13:39.298Z,4.17
2023-03-28T10:17:32.825Z,4.39
2023-03-28T10:22:06.252Z,4.47
2023-03-28T10:26:35.237Z,4.59
2023-03-28T11:19:25.656Z,5.21
2023-03-28T11:24:00.371Z,5.21
2023-03-28T11:28:10.791Z,5.29
2023-03-28T11:32:16.349Z,5.40
2023-03-28T11:36:41.136Z,5.38
2023-03-28T11:41:25.447Z,5.55
2023-03-28T11:45:53.232Z,5.78
2023-03-28T11:50:27.888Z,5.97
2023-03-28T11:59:27.734Z,6.55
2023-03-28T12:35:19.727Z,7.55
2023-03-28T12:39:57.969Z,7.51
2023-03-28T12:44:39.180Z,7.42
2023-03-28T12:49:04.988Z,7.53
2023-03-28T12:53:37.438Z,7.54
2023-03-28T12:58:23.090Z,7.58
2023-03-28T13:15:55.156Z,7.68
2023-03-28T13:19:48.809Z,7.56
2023-03-28T13:24:06.085Z,7.49
2023-03-28T13:28:21.346Z,7.53
2023-03-28T13:49:33.121Z,7.77
2023-03-28T13:54:02.090Z,7.70
2023-03-28T13:58:27.900Z,7.73
2023-03-28T14:02:57.281Z,7.61
2023-03-28T14:07:16.782Z,7.68
2023-03-28T14:24:36.917Z,7.78
2023-03-28T14:29:06.873Z,7.56
2023-03-28T14:50:20.096Z,7.22
2023-03-28T14:54:14.571Z,7.08
2023-03-28T14:58:43.876Z,7.08
2023-03-28T15:29:11.636Z,6.97
2023-03-28T15:33:41.555Z,6.82
2023-03-28T16:04:05.948Z,5.89
2023-03-28T16:08:27.392Z,5.69
2023-03-28T16:12:27.487Z,5.44
2023-03-28T16:16:55.205Z,5.29
2023-03-28T16:21:24.284Z,5.17
2023-03-28T16:47:35.721Z,4.38
2023-03-28T16:51:54.787Z,4.25
2023-03-28T16:56:25.276Z,4.14
2023-03-28T17:19:07.798Z,3.53
2023-03-28T17:23:11.046Z,3.38
2023-03-28T17:26:51.832Z,3.22
2023-03-28T17:31:11.237Z,3.00
2023-03-28T17:52:41.941Z,2.04
2023-03-28T17:57:11.370Z,1.84
2023-03-28T18:01:40.821Z,1.65
2023-03-28T18:06:00.771Z,1.50
2023-03-28T18:10:06.194Z,1.35
2023-03-28T18:18:13.570Z,1.15
2023-03-28T18:22:43.335Z,0.99
2023-03-28T18:27:09.321Z,0.87
2023-03-28T18:53:09.659Z,0.35
2023-03-28T18:57:23.167Z,0.27
2023-03-28T19:01:51.571Z,0.18
2023-03-28T19:06:21.060Z,0.10
2023-03-28T19:10:31.206Z,0.02
2023-03-28T19:45:10.997Z,-0.50
2023-03-28T19:49:39.982Z,-0.58
2023-03-28T19:53:57.894Z,-0.67
2023-03-28T20:25:19.358Z,-1.03
2023-03-28T20:29:48.757Z,-1.10
2023-03-28T20:51:46.757Z,-1.26
2023-03-28T20:56:16.660Z,-1.30
2023-03-28T21:17:58.358Z,-1.45
2023-03-28T21:22:27.897Z,-1.49
2023-03-28T21:43:54.841Z,-1.48
2023-03-28T21:48:16.376Z,-1.48
2023-03-28T22:11:57.883Z,-1.02
2023-03-28T22:16:26.768Z,-0.97
2023-03-28T22:20:57.135Z,-0.92
2023-03-28T22:38:07.404Z,-0.63
2023-03-28T22:42:36.264Z,-0.59
2023-03-28T22:47:05.169Z,-0.56
2023-03-28T22:51:18.293Z,-0.52
2023-03-28T23:12:26.967Z,-0.05
2023-03-28T23:16:49.314Z,0.04
2023-03-28T23:42:57.042Z,0.38
2023-03-28T23:47:25.819Z,0.41
2023-03-28T23:51:43.731Z,0.43
2023-03-28T23:56:14.011Z,0.44
